ドーハ の空港の天気 - METARとTAF

ドーハ国際空港 ( OTBD / DOH ) - カタール ドーハ
飛行場実況気象(Metar)
観測時間04/19 14:00 AST (04/19 11:00 UTC)
風向・風速西北西 8m/s
視程10km以上
天気現象
なし
気温33℃
湿度11%
気圧1011hPa
METAROTBD 191100Z 30015KT 270V330 CAVOK 33/M01 Q1011 NOSIG
過去の天気等 Google飛行場航空写真 Wunderground天気予報

過去48時間のMETAR

飛行場予報(TAF)
発表時間: 4/19 13:53 AST (4/19 10:53 UTC)
予報対象時間: 19日15時 AST ~ 20日21時 AST
風向・風速北西 8m/s
視程10km以上
なし
19日21時 AST ~ 19日23時 AST に徐々に
風向・風速西北西 3m/s
TAF OTBD 191053Z 1912/2018 32015KT CAVOK
BECMG 1918/1920 29006KT